createdAt,value
2022-10-02T00:03:27.246Z,3.90
2022-10-02T00:08:40.090Z,3.35
2022-10-02T00:13:48.480Z,3.93
2022-10-02T00:18:51.444Z,5.80
2022-10-02T00:24:01.185Z,5.97
2022-10-02T00:29:08.789Z,4.90
2022-10-02T00:34:21.662Z,5.93
2022-10-02T00:39:42.389Z,5.00
2022-10-02T00:44:47.530Z,6.55
2022-10-02T00:50:01.933Z,5.70
2022-10-02T00:55:13.672Z,5.32
2022-10-02T01:00:18.779Z,4.60
2022-10-02T01:05:21.588Z,4.07
2022-10-02T01:10:27.604Z,4.65
2022-10-02T01:15:39.711Z,4.50
2022-10-02T01:20:48.127Z,3.20
2022-10-02T01:25:50.607Z,2.92
2022-10-02T01:30:57.946Z,3.20
2022-10-02T01:36:00.730Z,2.17
2022-10-02T01:41:03.171Z,2.60
2022-10-02T01:46:08.825Z,1.70
2022-10-02T01:51:23.328Z,0.90
2022-10-02T01:57:06.919Z,0.70
2022-10-02T02:02:50.637Z,0.98
2022-10-02T02:08:10.074Z,1.40
2022-10-02T02:13:22.533Z,1.40
2022-10-02T02:18:51.464Z,1.40
2022-10-02T02:23:56.465Z,1.50
2022-10-02T02:29:02.795Z,1.40
2022-10-02T02:34:10.144Z,1.60
2022-10-02T02:39:29.592Z,2.10
2022-10-02T02:44:37.536Z,1.80
2022-10-02T02:50:00.670Z,2.70
2022-10-02T02:55:29.312Z,2.50
2022-10-02T03:00:31.794Z,2.10
2022-10-02T03:05:35.748Z,1.57
2022-10-02T03:10:40.927Z,1.77
2022-10-02T03:16:07.725Z,1.80
2022-10-02T03:21:17.756Z,1.87
2022-10-02T03:26:29.787Z,2.22
2022-10-02T03:31:33.712Z,2.07
2022-10-02T03:36:36.680Z,2.42
2022-10-02T03:41:39.460Z,2.40
2022-10-02T03:46:41.932Z,1.73
2022-10-02T03:51:44.522Z,1.83
2022-10-02T03:56:52.118Z,2.22
2022-10-02T04:01:55.659Z,2.10
2022-10-02T04:07:05.075Z,1.77
2022-10-02T04:12:32.240Z,2.17
2022-10-02T04:18:14.021Z,2.65
2022-10-02T04:23:32.391Z,2.40
2022-10-02T04:28:44.858Z,1.80
2022-10-02T04:33:47.306Z,1.90
2022-10-02T04:39:12.915Z,1.70
2022-10-02T04:44:36.774Z,1.80
2022-10-02T04:49:48.252Z,1.80
2022-10-02T04:54:53.708Z,1.93
2022-10-02T05:00:09.767Z,1.80
2022-10-02T05:05:22.093Z,1.83
2022-10-02T05:10:27.291Z,1.40
2022-10-02T05:15:45.933Z,1.83
2022-10-02T05:21:13.945Z,1.63
2022-10-02T05:26:41.614Z,1.20
2022-10-02T05:31:56.018Z,1.38
2022-10-02T05:37:03.321Z,1.50
2022-10-02T05:42:23.524Z,1.20
2022-10-02T05:47:39.736Z,1.15
2022-10-02T05:52:55.807Z,1.23
2022-10-02T05:58:06.470Z,1.40
2022-10-02T06:03:49.899Z,1.50
2022-10-02T06:09:03.975Z,1.37
2022-10-02T06:14:37.574Z,1.50
2022-10-02T06:19:45.451Z,1.80
2022-10-02T06:24:59.354Z,1.40
2022-10-02T06:30:07.058Z,1.50
2022-10-02T06:35:14.329Z,1.00
2022-10-02T06:40:31.130Z,1.60
2022-10-02T06:46:16.413Z,1.10
2022-10-02T06:51:54.809Z,1.10
2022-10-02T06:57:08.961Z,1.30
2022-10-02T10:39:58.105Z,0.65
2022-10-02T10:45:24.535Z,0.80
2022-10-02T10:51:04.464Z,1.00
2022-10-02T10:56:31.210Z,0.60
2022-10-02T11:01:45.483Z,0.80
2022-10-02T11:07:08.520Z,0.80
2022-10-02T11:12:21.747Z,0.75
2022-10-02T11:17:50.900Z,0.50
2022-10-02T11:22:59.197Z,0.70
2022-10-02T11:28:29.627Z,0.80
2022-10-02T11:33:57.637Z,1.00
2022-10-02T11:39:17.361Z,0.65
2022-10-02T11:44:38.677Z,0.97
2022-10-02T11:50:19.085Z,0.70
2022-10-02T11:55:34.259Z,0.90
2022-10-02T12:00:56.227Z,1.30
2022-10-02T12:06:32.301Z,1.00
2022-10-02T12:12:17.114Z,1.35
2022-10-02T12:17:56.739Z,0.93
2022-10-02T12:23:25.770Z,0.90
2022-10-02T12:29:05.701Z,0.93
2022-10-02T12:34:28.853Z,0.70
2022-10-02T12:39:44.616Z,0.60
2022-10-02T12:45:11.370Z,1.10
2022-10-02T12:50:27.965Z,0.80
2022-10-02T12:55:55.930Z,1.20
2022-10-02T13:01:20.209Z,1.25
2022-10-02T13:06:29.724Z,0.57
2022-10-02T13:11:35.373Z,0.97
2022-10-02T13:16:47.005Z,0.93
2022-10-02T13:22:10.124Z,0.90
2022-10-02T13:27:35.070Z,0.87
2022-10-02T13:32:55.133Z,0.73
2022-10-02T13:38:35.049Z,0.80
2022-10-02T13:43:42.319Z,0.83
2022-10-02T13:49:06.661Z,0.70
2022-10-02T13:54:32.191Z,0.63
2022-10-02T14:00:16.079Z,1.17
2022-10-02T14:06:00.801Z,0.97
2022-10-02T14:11:22.707Z,0.82
2022-10-02T14:16:50.203Z,0.63
2022-10-02T14:22:38.770Z,0.80
2022-10-02T14:28:14.784Z,1.42
2022-10-02T14:33:29.984Z,0.80
2022-10-02T14:38:40.185Z,0.70
2022-10-02T14:44:14.435Z,0.63
2022-10-02T14:49:39.765Z,0.52
2022-10-02T14:54:59.767Z,0.80
2022-10-02T15:00:07.994Z,0.77
2022-10-02T15:05:31.683Z,0.73
2022-10-02T15:10:36.274Z,0.87
2022-10-02T15:15:41.417Z,1.10
2022-10-02T15:21:01.396Z,0.82
2022-10-02T15:26:22.805Z,0.77
2022-10-02T15:31:42.200Z,0.85
2022-10-02T15:37:17.812Z,0.80
2022-10-02T15:42:50.054Z,1.10
2022-10-02T15:48:21.462Z,1.00
2022-10-02T15:53:32.985Z,1.25
2022-10-02T15:58:57.184Z,1.67
2022-10-02T16:04:25.429Z,2.17
2022-10-02T16:09:48.924Z,2.58
2022-10-02T16:15:15.092Z,2.23
2022-10-02T16:20:44.810Z,2.15
2022-10-02T16:26:18.203Z,1.50
2022-10-02T16:31:57.024Z,1.97
2022-10-02T16:37:26.690Z,1.73
2022-10-02T16:42:39.647Z,1.88
2022-10-02T16:47:55.136Z,2.43
2022-10-02T16:53:24.599Z,2.55
2022-10-02T16:58:32.808Z,3.03
2022-10-02T17:03:46.298Z,13.60
2022-10-02T17:08:56.543Z,6.43
2022-10-02T17:14:31.099Z,3.30
2022-10-02T17:20:08.796Z,2.30
2022-10-02T17:25:27.130Z,1.98
2022-10-02T17:30:43.920Z,2.57
2022-10-02T17:36:27.296Z,2.50
2022-10-02T17:41:48.045Z,2.35
2022-10-02T17:47:18.884Z,2.20
2022-10-02T17:52:58.037Z,3.00
2022-10-02T17:58:06.911Z,3.95
2022-10-02T18:03:13.332Z,3.70
2022-10-02T18:08:36.329Z,5.13
2022-10-02T18:14:02.780Z,5.00
2022-10-02T18:19:24.032Z,7.40
2022-10-02T18:24:35.477Z,5.13
2022-10-02T18:29:46.784Z,5.88
2022-10-02T18:35:10.980Z,5.30
2022-10-02T18:40:22.366Z,4.55
2022-10-02T18:45:34.341Z,4.78
2022-10-02T18:50:49.817Z,4.03
2022-10-02T18:56:07.020Z,4.50
2022-10-02T19:01:12.343Z,4.33
2022-10-02T19:06:29.654Z,5.95
2022-10-02T19:11:46.662Z,6.93
2022-10-02T19:17:05.455Z,7.03
2022-10-02T19:22:21.007Z,6.80
2022-10-02T19:27:32.306Z,9.35
2022-10-02T19:32:43.318Z,11.23
2022-10-02T19:37:51.296Z,10.82
2022-10-02T19:43:14.807Z,8.87
2022-10-02T19:48:19.255Z,9.20
2022-10-02T19:53:25.875Z,8.32
2022-10-02T19:58:36.488Z,8.40
2022-10-02T20:03:40.031Z,8.70
2022-10-02T20:08:51.836Z,4.67
2022-10-02T20:14:22.988Z,1.33
2022-10-02T20:19:34.376Z,4.80
2022-10-02T20:25:26.617Z,4.50
2022-10-02T20:30:35.808Z,3.47
2022-10-02T20:35:45.156Z,3.87
2022-10-02T20:40:53.270Z,4.10
2022-10-02T20:46:02.624Z,5.35
2022-10-02T20:51:16.218Z,2.80
2022-10-02T20:56:23.060Z,2.00
2022-10-02T21:01:35.225Z,2.00
2022-10-02T21:06:46.899Z,2.28
2022-10-02T21:12:26.906Z,1.90
2022-10-02T21:17:43.264Z,3.33
2022-10-02T21:23:07.800Z,3.28
2022-10-02T21:28:48.863Z,3.27
2022-10-02T21:34:10.504Z,3.28
2022-10-02T21:39:25.432Z,2.22
2022-10-02T21:44:34.789Z,2.53
2022-10-02T21:50:11.949Z,5.00
2022-10-02T21:55:53.257Z,4.30
2022-10-02T22:01:14.169Z,1.70
2022-10-02T22:06:22.805Z,1.52
2022-10-02T22:11:37.746Z,1.50
2022-10-02T22:16:51.489Z,1.60
2022-10-02T22:22:32.223Z,2.00
2022-10-02T22:27:56.349Z,2.10
2022-10-02T22:33:21.733Z,3.40
2022-10-02T22:38:51.953Z,3.83
2022-10-02T22:44:03.539Z,4.10
2022-10-02T22:49:10.061Z,4.40
2022-10-02T22:54:25.473Z,4.30
2022-10-02T22:59:44.153Z,3.50
2022-10-02T23:05:00.191Z,3.13
2022-10-02T23:10:15.103Z,3.40
2022-10-02T23:15:47.078Z,3.90
2022-10-02T23:21:05.255Z,3.97
2022-10-02T23:26:09.766Z,3.38
2022-10-02T23:31:23.005Z,3.40
2022-10-02T23:36:51.810Z,2.83
2022-10-02T23:41:57.751Z,1.70
2022-10-02T23:47:14.610Z,1.58
2022-10-02T23:52:35.679Z,1.52
2022-10-02T23:57:47.213Z,1.23
